createdAt,value
2023-05-02T00:05:20.663Z,1.80
2023-05-02T00:08:23.045Z,1.70
2023-05-02T00:11:25.618Z,1.90
2023-05-02T00:14:27.819Z,2.00
2023-05-02T00:17:30.430Z,2.10
2023-05-02T00:20:32.836Z,1.90
2023-05-02T00:23:35.040Z,2.00
2023-05-02T00:26:37.480Z,1.80
2023-05-02T00:29:40.943Z,1.70
2023-05-02T00:32:43.991Z,1.90
2023-05-02T00:35:45.951Z,2.00
2023-05-02T00:38:48.625Z,1.90
2023-05-02T00:41:59.935Z,1.70
2023-05-02T00:45:05.824Z,1.40
2023-05-02T00:48:09.301Z,1.50
2023-05-02T00:51:13.176Z,1.50
2023-05-02T00:54:15.937Z,1.50
2023-05-02T00:57:18.338Z,2.20
2023-05-02T01:00:21.854Z,1.40
2023-05-02T01:03:42.337Z,1.80
2023-05-02T01:06:59.159Z,1.60
2023-05-02T01:10:20.476Z,1.60
2023-05-02T01:13:33.936Z,1.70
2023-05-02T01:16:40.362Z,1.50
2023-05-02T01:19:48.991Z,1.60
2023-05-02T01:22:52.500Z,1.80
2023-05-02T01:26:33.675Z,1.70
2023-05-02T01:29:38.693Z,1.20
2023-05-02T01:32:45.259Z,1.60
2023-05-02T01:35:51.557Z,1.40
2023-05-02T01:38:56.590Z,1.60
2023-05-02T01:42:02.243Z,1.50
2023-05-02T01:45:07.640Z,1.50
2023-05-02T01:48:11.604Z,1.40
2023-05-02T01:51:18.392Z,1.50
2023-05-02T01:54:24.238Z,2.20
2023-05-02T01:57:27.133Z,1.60
2023-05-02T02:00:29.812Z,1.60
2023-05-02T02:05:06.270Z,1.80
2023-05-02T02:08:08.979Z,1.90
2023-05-02T02:11:16.988Z,1.70
2023-05-02T02:14:22.918Z,2.10
2023-05-02T02:17:30.292Z,1.90
2023-05-02T02:20:33.128Z,2.10
2023-05-02T02:23:38.639Z,2.20
2023-05-02T02:26:41.452Z,2.30
2023-05-02T02:29:44.183Z,2.40
2023-05-02T02:32:48.114Z,2.60
2023-05-02T02:35:58.330Z,2.90
2023-05-02T02:39:27.312Z,2.80
2023-05-02T02:42:56.434Z,2.90
2023-05-02T02:46:17.547Z,2.70
2023-05-02T02:49:38.125Z,2.40
2023-05-02T02:52:53.907Z,3.00
2023-05-02T02:56:06.958Z,2.70
2023-05-02T02:59:29.802Z,2.80
2023-05-02T03:02:34.141Z,2.50
2023-05-02T03:05:36.597Z,2.40
2023-05-02T03:08:43.284Z,2.60
2023-05-02T03:11:47.489Z,2.40
2023-05-02T03:14:51.294Z,2.60
2023-05-02T03:17:53.723Z,2.00
2023-05-02T03:20:57.799Z,2.50
2023-05-02T03:24:01.191Z,2.50
2023-05-02T03:27:04.864Z,2.20
2023-05-02T03:30:11.060Z,2.40
2023-05-02T03:33:13.134Z,2.60
2023-05-02T03:36:16.532Z,2.80
2023-05-02T03:39:19.278Z,2.20
2023-05-02T03:42:22.373Z,2.50
2023-05-02T03:45:24.358Z,3.00
2023-05-02T03:48:28.273Z,2.70
2023-05-02T03:51:31.046Z,3.00
2023-05-02T03:54:34.289Z,2.50
2023-05-02T03:57:36.786Z,2.90
2023-05-02T04:00:40.435Z,2.60
2023-05-02T04:05:03.250Z,2.60
2023-05-02T04:08:06.547Z,2.70
2023-05-02T04:11:09.256Z,3.70
2023-05-02T04:14:11.764Z,2.40
2023-05-02T04:17:16.415Z,2.20
2023-05-02T04:20:24.094Z,2.50
2023-05-02T04:23:28.390Z,2.40
2023-05-02T04:26:34.681Z,3.00
2023-05-02T04:29:41.769Z,3.80
2023-05-02T04:32:44.717Z,3.20
2023-05-02T04:35:47.645Z,3.00
2023-05-02T04:38:51.423Z,2.50
2023-05-02T04:41:54.611Z,3.10
2023-05-02T04:44:58.469Z,2.60
2023-05-02T04:48:01.088Z,3.10
2023-05-02T04:51:03.554Z,2.60
2023-05-02T04:54:06.808Z,2.30
2023-05-02T04:57:10.580Z,2.50
2023-05-02T05:00:17.305Z,2.30
2023-05-02T05:03:20.118Z,2.50
2023-05-02T05:06:23.228Z,3.70
2023-05-02T05:09:26.407Z,2.40
2023-05-02T05:12:29.166Z,2.90
2023-05-02T05:15:31.592Z,2.60
2023-05-02T05:18:42.096Z,2.90
2023-05-02T05:21:47.051Z,2.80
2023-05-02T05:24:54.575Z,2.90
2023-05-02T05:28:02.001Z,3.30
2023-05-02T05:31:07.644Z,3.10
2023-05-02T05:34:10.385Z,3.00
2023-05-02T05:37:12.836Z,3.20
2023-05-02T05:40:17.168Z,3.30
2023-05-02T05:43:23.226Z,2.70
2023-05-02T05:46:26.133Z,2.30
2023-05-02T05:49:29.527Z,2.10
2023-05-02T05:52:31.672Z,2.30
2023-05-02T05:55:37.440Z,2.50
2023-05-02T05:58:40.848Z,2.10
2023-05-02T06:05:19.824Z,1.80
2023-05-02T06:08:22.174Z,2.40
2023-05-02T06:11:24.261Z,2.00
2023-05-02T06:14:26.544Z,1.90
2023-05-02T06:17:28.860Z,2.00
2023-05-02T06:20:30.954Z,1.70
2023-05-02T06:23:34.032Z,2.20
2023-05-02T06:26:36.459Z,2.40
2023-05-02T06:29:38.790Z,2.30
2023-05-02T06:32:43.666Z,2.20
2023-05-02T06:35:51.131Z,2.50
2023-05-02T06:38:53.235Z,2.20
2023-05-02T06:41:58.378Z,2.10
2023-05-02T06:45:01.679Z,3.60
2023-05-02T06:48:04.054Z,2.00
2023-05-02T06:51:06.607Z,2.80
2023-05-02T06:54:08.849Z,2.20
2023-05-02T06:57:11.121Z,1.80
2023-05-02T07:00:14.511Z,3.80
2023-05-02T07:03:16.754Z,2.50
2023-05-02T07:06:19.149Z,2.30
2023-05-02T07:09:21.455Z,2.00
2023-05-02T07:12:23.446Z,1.90
2023-05-02T07:15:26.607Z,1.80
2023-05-02T07:27:27.921Z,2.10
2023-05-02T07:30:30.102Z,2.00
2023-05-02T07:33:32.071Z,1.90
2023-05-02T07:36:34.332Z,1.60
2023-05-02T07:39:36.516Z,1.70
2023-05-02T07:42:39.700Z,2.10
2023-05-02T07:45:42.130Z,2.30
2023-05-02T07:48:44.705Z,1.80
2023-05-02T07:51:48.429Z,1.10
2023-05-02T07:54:51.571Z,1.20
2023-05-02T07:57:54.444Z,1.30
2023-05-02T08:00:58.054Z,1.70
2023-05-02T08:04:00.487Z,1.20
2023-05-02T08:07:03.430Z,1.20
2023-05-02T08:10:09.584Z,1.00
2023-05-02T08:13:12.517Z,1.80
2023-05-02T08:16:15.968Z,1.30
2023-05-02T08:19:18.257Z,1.10
2023-05-02T08:22:20.300Z,0.90
2023-05-02T08:25:22.416Z,1.00
2023-05-02T08:28:24.437Z,1.10
2023-05-02T08:31:26.612Z,0.90
2023-05-02T08:34:28.671Z,1.00
2023-05-02T08:37:32.581Z,1.20
2023-05-02T08:40:42.089Z,0.80
2023-05-02T08:43:46.849Z,1.00
2023-05-02T08:46:51.950Z,1.60
2023-05-02T08:49:56.791Z,1.50
2023-05-02T08:52:59.952Z,1.00
2023-05-02T08:56:02.393Z,1.20
2023-05-02T08:59:04.631Z,1.40
2023-05-02T09:02:24.401Z,1.00
2023-05-02T09:05:26.711Z,1.00
2023-05-02T09:08:28.809Z,1.10
2023-05-02T09:11:30.868Z,1.00
2023-05-02T09:14:33.163Z,1.20
2023-05-02T09:17:43.462Z,1.20
2023-05-02T09:20:46.017Z,1.20
2023-05-02T09:23:50.503Z,1.40
2023-05-02T09:27:05.831Z,1.20
2023-05-02T09:30:28.632Z,0.90
2023-05-02T09:33:32.026Z,1.10
2023-05-02T09:36:58.598Z,1.20
2023-05-02T09:40:09.694Z,1.50
2023-05-02T09:43:16.975Z,1.00
2023-05-02T09:46:19.170Z,0.90
2023-05-02T09:49:41.563Z,1.20
2023-05-02T09:53:01.496Z,1.20
2023-05-02T09:56:04.882Z,1.10
2023-05-02T09:59:17.668Z,1.40
2023-05-02T10:05:03.207Z,1.00
2023-05-02T10:08:07.955Z,1.30
2023-05-02T10:11:10.722Z,1.00
2023-05-02T10:14:15.530Z,1.30
2023-05-02T10:17:31.331Z,1.00
2023-05-02T10:20:38.085Z,1.20
2023-05-02T10:23:44.695Z,1.00
2023-05-02T10:26:48.547Z,0.90
2023-05-02T10:29:51.762Z,1.40
2023-05-02T10:32:57.185Z,1.40
2023-05-02T10:36:00.134Z,1.10
2023-05-02T14:05:04.066Z,1.00
2023-05-02T14:08:06.371Z,1.00
2023-05-02T14:11:08.504Z,1.00
2023-05-02T14:14:12.750Z,1.10
2023-05-02T14:17:15.133Z,0.90
2023-05-02T14:20:17.176Z,0.90
2023-05-02T14:23:19.348Z,1.60
2023-05-02T14:26:21.425Z,1.30
2023-05-02T14:29:23.478Z,1.30
2023-05-02T14:32:25.550Z,1.10
2023-05-02T14:35:27.712Z,1.00
2023-05-02T14:38:29.793Z,1.80
2023-05-02T14:41:31.857Z,1.10
2023-05-02T14:44:33.833Z,0.90
2023-05-02T14:47:36.722Z,1.20
2023-05-02T14:50:39.806Z,1.20
2023-05-02T14:53:42.169Z,1.10
2023-05-02T14:56:44.750Z,1.20
2023-05-02T14:59:47.032Z,1.10
2023-05-02T15:02:49.193Z,1.10
2023-05-02T15:05:51.363Z,1.00
2023-05-02T15:08:53.569Z,1.30
2023-05-02T15:11:57.167Z,1.40
2023-05-02T15:14:59.312Z,1.10
2023-05-02T15:18:01.616Z,1.20
2023-05-02T15:21:04.215Z,1.10
2023-05-02T15:24:07.006Z,1.30
2023-05-02T15:27:09.949Z,1.20
2023-05-02T15:30:12.924Z,1.30
2023-05-02T15:33:16.342Z,1.70
2023-05-02T15:36:19.272Z,1.40
2023-05-02T15:39:22.870Z,1.40
2023-05-02T15:42:24.885Z,1.30
2023-05-02T15:45:26.949Z,1.10
2023-05-02T15:48:30.863Z,1.10
2023-05-02T15:51:32.830Z,1.50
2023-05-02T15:54:35.305Z,1.30
2023-05-02T15:57:37.649Z,1.20
2023-05-02T16:00:39.745Z,1.30
2023-05-02T16:03:42.244Z,1.20
2023-05-02T16:06:44.721Z,1.00
2023-05-02T16:09:47.180Z,1.00
2023-05-02T16:12:49.254Z,1.20
2023-05-02T16:15:54.422Z,1.50
2023-05-02T16:18:56.674Z,1.70
2023-05-02T16:21:58.948Z,1.30
2023-05-02T16:25:01.220Z,1.70
2023-05-02T16:28:03.393Z,1.40
2023-05-02T16:31:07.781Z,1.20
2023-05-02T16:34:10.098Z,1.50
2023-05-02T16:37:12.375Z,1.40
2023-05-02T16:40:14.761Z,1.60
2023-05-02T16:43:17.463Z,1.80
2023-05-02T16:46:19.714Z,1.80
2023-05-02T16:49:22.224Z,1.50
2023-05-02T16:52:24.796Z,1.90
2023-05-02T16:55:26.838Z,1.50
2023-05-02T16:58:29.340Z,1.90
2023-05-02T17:01:31.415Z,1.50
2023-05-02T17:04:33.414Z,2.00
2023-05-02T17:07:35.586Z,1.80
2023-05-02T17:10:37.856Z,1.60
2023-05-02T17:13:40.335Z,1.60
2023-05-02T17:16:42.491Z,2.00
2023-05-02T17:19:44.781Z,1.60
2023-05-02T17:22:47.677Z,1.70
2023-05-02T17:25:50.071Z,1.60
2023-05-02T17:28:53.924Z,1.70
2023-05-02T17:32:00.960Z,2.00
2023-05-02T17:35:03.466Z,2.00
2023-05-02T17:38:05.748Z,2.60
2023-05-02T17:41:08.280Z,2.00
2023-05-02T17:44:10.336Z,2.10
2023-05-02T17:47:13.465Z,2.30
2023-05-02T17:50:15.959Z,1.80
2023-05-02T17:53:18.247Z,2.10
2023-05-02T17:56:20.462Z,1.90
2023-05-02T17:59:23.088Z,2.00
2023-05-02T18:05:04.224Z,1.50
2023-05-02T18:08:10.710Z,1.50
2023-05-02T18:11:17.902Z,1.80
2023-05-02T18:14:20.183Z,1.50
2023-05-02T18:17:23.222Z,1.80
2023-05-02T18:20:25.851Z,2.30
2023-05-02T18:23:28.226Z,1.90
2023-05-02T18:26:30.283Z,1.90
2023-05-02T18:29:36.652Z,1.70
2023-05-02T18:32:38.741Z,1.90
2023-05-02T18:35:50.487Z,1.60
2023-05-02T18:38:52.771Z,2.30
2023-05-02T18:41:54.961Z,2.00
2023-05-02T18:44:56.995Z,1.80
2023-05-02T18:47:59.986Z,2.10
2023-05-02T18:51:03.123Z,2.20
2023-05-02T18:54:05.495Z,1.90
2023-05-02T18:57:08.276Z,2.20
2023-05-02T19:00:11.909Z,2.20
2023-05-02T19:03:14.418Z,1.90
2023-05-02T19:06:19.515Z,2.00
2023-05-02T19:09:22.020Z,2.10
2023-05-02T19:12:24.355Z,1.80
2023-05-02T19:15:27.856Z,2.00
2023-05-02T19:18:30.033Z,2.30
2023-05-02T19:21:34.272Z,2.50
2023-05-02T19:24:36.725Z,2.50
2023-05-02T19:27:44.204Z,2.20
2023-05-02T19:30:46.197Z,1.90
2023-05-02T19:33:55.151Z,1.70
2023-05-02T19:36:57.206Z,1.90
2023-05-02T19:39:59.568Z,1.90
2023-05-02T19:57:26.185Z,2.10
2023-05-02T20:00:28.767Z,2.00
2023-05-02T20:03:31.150Z,1.90
2023-05-02T20:06:33.668Z,2.00
2023-05-02T20:09:36.134Z,2.60
2023-05-02T20:12:38.993Z,1.90
2023-05-02T20:15:41.586Z,2.10
2023-05-02T20:18:43.686Z,2.30
2023-05-02T20:21:46.180Z,1.70
2023-05-02T20:24:48.286Z,2.10
2023-05-02T20:27:51.491Z,1.80
2023-05-02T20:30:53.513Z,2.10
2023-05-02T20:33:56.000Z,1.80
2023-05-02T20:36:58.173Z,2.00
2023-05-02T20:40:01.371Z,1.50
2023-05-02T20:43:05.351Z,1.90
2023-05-02T20:46:11.918Z,2.10
2023-05-02T20:49:14.667Z,2.80
2023-05-02T20:52:17.131Z,2.00
2023-05-02T20:55:22.409Z,1.90
2023-05-02T20:58:24.867Z,2.10
2023-05-02T21:01:27.367Z,2.60
2023-05-02T21:04:29.743Z,2.30
2023-05-02T21:07:31.915Z,2.40
2023-05-02T21:10:34.091Z,1.90
2023-05-02T21:13:36.274Z,2.30
2023-05-02T21:16:39.644Z,1.80
2023-05-02T21:19:41.648Z,2.00
2023-05-02T21:22:43.570Z,2.30
2023-05-02T21:25:45.618Z,2.30
2023-05-02T21:28:47.613Z,2.20
2023-05-02T21:31:49.971Z,1.70
2023-05-02T21:34:52.957Z,2.40
2023-05-02T21:37:55.055Z,2.60
2023-05-02T21:41:01.283Z,2.10
2023-05-02T21:44:03.456Z,2.70
2023-05-02T21:47:05.663Z,2.50
2023-05-02T21:50:08.494Z,2.20
2023-05-02T21:53:11.116Z,2.80
2023-05-02T21:56:13.202Z,2.20
2023-05-02T21:59:15.347Z,2.40
2023-05-02T22:05:02.044Z,2.90
2023-05-02T22:08:04.226Z,2.50
2023-05-02T22:11:10.525Z,2.50
2023-05-02T22:14:12.602Z,1.90
2023-05-02T22:17:17.676Z,2.40
2023-05-02T22:20:19.817Z,2.40
2023-05-02T22:23:21.944Z,2.10
2023-05-02T22:26:24.128Z,2.40
2023-05-02T22:29:26.183Z,2.20
2023-05-02T22:32:28.203Z,2.70
2023-05-02T22:35:30.247Z,1.80
2023-05-02T22:38:32.187Z,2.70
2023-05-02T22:41:34.353Z,2.30
2023-05-02T22:44:50.671Z,2.20
2023-05-02T22:47:56.419Z,2.20
2023-05-02T22:50:58.691Z,2.20
2023-05-02T22:54:00.859Z,2.40
2023-05-02T22:57:03.338Z,2.30
2023-05-02T23:00:07.530Z,2.30
2023-05-02T23:03:11.191Z,2.20
2023-05-02T23:06:13.395Z,1.90
2023-05-02T23:09:15.372Z,2.00
2023-05-02T23:12:17.791Z,1.50
2023-05-02T23:15:19.851Z,1.80
2023-05-02T23:18:22.741Z,2.00
2023-05-02T23:21:24.908Z,1.90
2023-05-02T23:24:26.911Z,2.40
2023-05-02T23:27:29.133Z,1.80
2023-05-02T23:30:32.339Z,1.80
2023-05-02T23:33:34.699Z,2.30
2023-05-02T23:36:36.884Z,1.60
2023-05-02T23:39:38.964Z,1.60
2023-05-02T23:42:42.241Z,1.60
2023-05-02T23:45:45.938Z,1.80
2023-05-02T23:48:48.130Z,1.90
2023-05-02T23:51:50.205Z,1.60
2023-05-02T23:54:52.990Z,1.50
